メインページ
METAR-TAF:

METAR-TAF

空港 :

ベイルート, レバノン

緯度: 33-49N, 経度: 035-29E, 海抜: 29m

現時点の気象観測

当レポートは1時間49分前の00:00(UTC)に作成
の風 11kt
気温 15°C
湿度 67%
気圧 1014 hPa
視程10km以上
高度8000ftの千切れ雲あり

METAR: OLBA 180000Z 17011KT 9999 BKN080 15/09 Q1014 NOSIG

時間: 03:49 (01:49 UTC)

予報

当レポートは3時間49分前の22:00(UTC)に作成
予報は18日の 00時(UTC)から 19日の 06時(UTC)まで有効
の風 20kt
視程: 8000m
高度2600ftの千切れ雲あり
小雨
18日の 00時(UTC)から 18日の 06時(UTC)まで一時的に
19日の 06時(UTC)から 19日の 09時(UTC)まで徐々に
南西の風 30kt、最大45ktの突風を伴う
18日の 12時(UTC)から 19日の 03時(UTC)まで一時的に
視程: 4000m
高度2000ftの雲はほとんどない, 積乱雲.
高度2300ftの曇り
19日の 03時(UTC)から 19日の 06時(UTC)まで徐々に
西/北西の風 20kt

TAF: OLBA 172200Z 1800/1906 19020KT 8000 -RA BKN026 TEMPO 1800/1806 RA BECMG 1906/1909 22030G45KT TEMPO 1812/1903 4000 TSSHRA FEW020CB OVC023 BECMG 1903/1906 29020KT

4,000以上の空港の気象観測と天気予報(METAR報とTAF報)

利用可能な観測所は地図上に黄色い丸と赤い丸で示す。

丸の上にカーソルを重ねると観測所名を参照できる。

次にクリックすると気象観測と天気予報を参照できる。

マップの切り替え:黒色「×」印の緑ボタンをクリックして拡大、「-」印の緑ボタンをクリックして縮小、緑色の三角印をクリックして隣りの地図に切り替え


METAR-TAF: